Time;durP1;ratioP1;P1;durP2;ratioP2;P2;SDS_P1;SDS_P2;PMS_P1;PMS_P2;Temp;Humidity;BMP_temperature;BMP_pressure;BME280_temperature;BME280_humidity;BME280_pressure;Samples;Min_cycle;Max_cycle;Signal;HPM_P1;HPM_P2
2023/07/21 00:01:48;;;;;;;1.60;1.40;;;;;;;;;;5045459;28;20091;-75
2023/07/21 00:04:17;;;;;;;2.22;1.67;;;;;;;;;;5044305;28;20053;-72
2023/07/21 00:06:45;;;;;;;1.60;1.50;;;;;;;;;;5047228;28;20068;-73
2023/07/21 00:09:12;;;;;;;1.50;1.40;;;;;;;;;;5046162;28;20049;-73
2023/07/21 00:11:40;;;;;;;1.73;1.60;;;;;;;;;;5044736;28;20048;-72
2023/07/21 00:14:10;;;;;;;1.92;1.60;;;;;;;;;;5027394;28;20103;-74
2023/07/21 00:16:37;;;;;;;2.10;1.83;;;;;;;;;;5046149;28;20044;-75
2023/07/21 00:19:06;;;;;;;2.10;1.77;;;;;;;;;;5042838;28;20033;-72
2023/07/21 00:21:34;;;;;;;1.83;1.73;;;;;;;;;;5045826;28;20068;-73
2023/07/21 00:24:02;;;;;;;3.03;1.58;;;;;;;;;;5044830;28;20132;-76
2023/07/21 00:26:30;;;;;;;1.80;1.70;;;;;;;;;;5045329;28;20049;-72
2023/07/21 00:29:01;;;;;;;2.25;1.60;;;;;;;;;;5027864;28;20479;-72
2023/07/21 00:31:29;;;;;;;2.10;1.50;;;;;;;;;;5045247;28;20040;-72
2023/07/21 00:33:59;;;;;;;1.73;1.63;;;;;;;;;;5043224;28;20049;-72
2023/07/21 00:36:26;;;;;;;1.75;1.65;;;;;;;;;;5025976;28;20051;-76
2023/07/21 00:38:56;;;;;;;1.85;1.75;;;;;;;;;;5037933;28;20445;-72
2023/07/21 00:41:26;;;;;;;1.77;1.65;;;;;;;;;;5041477;28;20045;-73
2023/07/21 00:43:55;;;;;;;2.72;1.80;;;;;;;;;;5042033;28;20044;-72
2023/07/21 00:46:23;;;;;;;2.35;1.95;;;;;;;;;;5028537;28;20140;-73
2023/07/21 00:48:52;;;;;;;1.55;1.45;;;;;;;;;;5040516;28;20069;-74
2023/07/21 00:51:22;;;;;;;1.67;1.58;;;;;;;;;;5027401;28;20118;-72
2023/07/21 00:53:50;;;;;;;1.88;1.58;;;;;;;;;;5044705;28;20567;-73
2023/07/21 00:56:21;;;;;;;3.40;1.55;;;;;;;;;;5041715;28;20052;-72
2023/07/21 00:58:50;;;;;;;1.48;1.38;;;;;;;;;;5039137;28;20072;-73
2023/07/21 01:01:22;;;;;;;1.92;1.73;;;;;;;;;;5042361;28;20040;-72
2023/07/21 01:03:51;;;;;;;1.70;1.60;;;;;;;;;;5026865;28;20048;-74
2023/07/21 01:06:19;;;;;;;1.58;1.48;;;;;;;;;;5041930;28;20036;-72
2023/07/21 01:08:47;;;;;;;2.53;1.60;;;;;;;;;;5042461;28;20052;-76
2023/07/21 01:11:15;;;;;;;3.05;1.58;;;;;;;;;;5045199;28;20115;-73
2023/07/21 01:13:43;;;;;;;1.80;1.70;;;;;;;;;;5024684;28;20094;-73
2023/07/21 01:16:11;;;;;;;2.35;1.45;;;;;;;;;;5041180;28;20098;-74
2023/07/21 01:18:41;;;;;;;1.70;1.60;;;;;;;;;;5041784;28;20048;-72
2023/07/21 01:21:10;;;;;;;2.38;1.40;;;;;;;;;;5040798;28;20759;-72
2023/07/21 01:23:42;;;;;;;1.90;1.80;;;;;;;;;;5044696;28;20654;-72
2023/07/21 01:26:11;;;;;;;3.05;1.63;;;;;;;;;;5044191;28;20049;-74
2023/07/21 01:28:42;;;;;;;1.67;1.58;;;;;;;;;;5041530;28;20060;-73
2023/07/21 01:31:09;;;;;;;1.80;1.70;;;;;;;;;;5026671;28;20037;-74
2023/07/21 01:33:37;;;;;;;1.90;1.80;;;;;;;;;;5026837;28;20044;-72
2023/07/21 01:36:06;;;;;;;2.38;1.83;;;;;;;;;;5038836;28;20056;-75
2023/07/21 01:38:33;;;;;;;1.83;1.60;;;;;;;;;;5047864;28;20051;-72
2023/07/21 01:41:02;;;;;;;1.85;1.70;;;;;;;;;;5024123;28;20594;-73
2023/07/21 01:43:31;;;;;;;1.70;1.60;;;;;;;;;;5041643;28;20126;-72
2023/07/21 01:45:58;;;;;;;1.60;1.50;;;;;;;;;;5020716;28;20447;-73
2023/07/21 01:48:26;;;;;;;1.77;1.67;;;;;;;;;;5036638;28;20048;-73
2023/07/21 01:50:55;;;;;;;2.20;1.75;;;;;;;;;;5056159;28;20045;-75
2023/07/21 01:53:24;;;;;;;1.63;1.60;;;;;;;;;;5042226;28;20049;-73
2023/07/21 01:56:00;;;;;;;1.77;1.67;;;;;;;;;;5037714;28;20053;-73
2023/07/21 01:58:29;;;;;;;2.13;2.03;;;;;;;;;;5023079;28;20052;-74
2023/07/21 02:01:00;;;;;;;5.63;1.95;;;;;;;;;;5027092;28;20045;-73
2023/07/21 02:03:28;;;;;;;1.88;1.60;;;;;;;;;;5041419;28;20041;-73
2023/07/21 02:05:55;;;;;;;1.98;1.88;;;;;;;;;;5042056;28;20462;-75
2023/07/21 02:08:23;;;;;;;2.08;1.90;;;;;;;;;;5022118;28;20064;-73
2023/07/21 02:10:52;;;;;;;2.55;1.98;;;;;;;;;;5025844;28;20041;-75
2023/07/21 02:13:39;;;;;;;1.60;1.50;;;;;;;;;;5051816;28;20045;-74
2023/07/21 02:16:07;;;;;;;3.92;1.65;;;;;;;;;;5038674;28;20041;-74
2023/07/21 02:18:37;;;;;;;1.63;1.52;;;;;;;;;;5036808;28;20045;-74
2023/07/21 02:21:05;;;;;;;2.47;1.80;;;;;;;;;;5032878;28;20045;-74
2023/07/21 02:23:32;;;;;;;1.80;1.70;;;;;;;;;;5031551;28;20511;-75
2023/07/21 02:26:00;;;;;;;2.30;1.85;;;;;;;;;;5046233;28;20087;-73
2023/07/21 02:28:27;;;;;;;1.80;1.70;;;;;;;;;;5030260;28;20045;-75
2023/07/21 02:31:02;;;;;;;2.00;1.90;;;;;;;;;;5061951;28;20395;-74
2023/07/21 02:33:30;;;;;;;2.25;1.70;;;;;;;;;;5040015;28;20053;-74
2023/07/21 02:35:58;;;;;;;1.80;1.60;;;;;;;;;;5047944;28;20510;-76
2023/07/21 02:38:26;;;;;;;3.15;2.05;;;;;;;;;;5019862;28;20473;-74
2023/07/21 02:40:54;;;;;;;1.95;1.85;;;;;;;;;;5046940;28;20137;-75
2023/07/21 02:43:23;;;;;;;1.95;1.85;;;;;;;;;;5028704;28;20132;-73
2023/07/21 02:45:51;;;;;;;3.53;1.80;;;;;;;;;;5047530;28;20049;-74
2023/07/21 02:48:19;;;;;;;2.10;1.90;;;;;;;;;;5029952;28;20060;-73
2023/07/21 02:50:51;;;;;;;2.00;1.90;;;;;;;;;;5027398;28;20045;-74
2023/07/21 02:53:20;;;;;;;1.80;1.70;;;;;;;;;;5024340;28;20046;-74
2023/07/21 02:55:55;;;;;;;2.22;2.03;;;;;;;;;;5026678;28;20049;-73
2023/07/21 02:58:26;;;;;;;2.05;1.95;;;;;;;;;;5026947;28;20041;-76
2023/07/21 03:00:54;;;;;;;2.30;2.10;;;;;;;;;;5029782;28;20048;-73
2023/07/21 03:03:27;;;;;;;2.00;1.90;;;;;;;;;;5027078;28;20041;-73
2023/07/21 03:06:03;;;;;;;2.35;1.90;;;;;;;;;;5027743;28;20156;-76
2023/07/21 03:08:31;;;;;;;2.05;1.90;;;;;;;;;;5039341;28;20617;-73
2023/07/21 03:11:04;;;;;;;2.10;1.90;;;;;;;;;;5029990;28;20141;-72
2023/07/21 03:13:36;;;;;;;1.90;1.80;;;;;;;;;;5036379;28;20053;-73
2023/07/21 03:16:04;;;;;;;1.80;1.70;;;;;;;;;;5036300;28;20045;-73
2023/07/21 03:18:34;;;;;;;3.17;2.00;;;;;;;;;;5022205;28;20049;-76
2023/07/21 03:21:13;;;;;;;4.03;2.00;;;;;;;;;;5026911;28;20041;-76
2023/07/21 03:23:45;;;;;;;2.60;2.40;;;;;;;;;;5042883;28;20296;-73
2023/07/21 03:26:18;;;;;;;2.17;1.98;;;;;;;;;;5030707;28;20087;-75
2023/07/21 03:28:47;;;;;;;2.20;2.10;;;;;;;;;;5031678;28;20043;-73
2023/07/21 03:31:14;;;;;;;2.85;1.73;;;;;;;;;;5029389;28;20052;-74
2023/07/21 03:33:47;;;;;;;2.22;1.77;;;;;;;;;;5026698;28;20434;-73
2023/07/21 03:36:20;;;;;;;2.67;2.47;;;;;;;;;;5025820;28;20041;-73
2023/07/21 03:38:48;;;;;;;2.40;2.10;;;;;;;;;;5028530;28;20068;-73
2023/07/21 03:41:16;;;;;;;2.92;2.17;;;;;;;;;;5027981;28;20094;-73
2023/07/21 03:43:44;;;;;;;2.20;2.00;;;;;;;;;;5024517;28;20055;-73
2023/07/21 03:46:13;;;;;;;2.25;2.05;;;;;;;;;;5025979;28;20103;-73
2023/07/21 03:48:59;;;;;;;2.22;2.10;;;;;;;;;;5045080;28;20154;-73
2023/07/21 03:51:27;;;;;;;2.35;2.15;;;;;;;;;;5024362;28;20049;-74
2023/07/21 03:53:58;;;;;;;2.72;2.30;;;;;;;;;;5055223;28;20090;-74
2023/07/21 03:56:26;;;;;;;3.63;2.20;;;;;;;;;;5019238;28;20392;-73
2023/07/21 03:58:55;;;;;;;2.63;2.40;;;;;;;;;;5026148;28;20044;-75
2023/07/21 04:01:24;;;;;;;2.20;2.00;;;;;;;;;;5025367;28;20487;-74
2023/07/21 04:03:52;;;;;;;2.08;1.98;;;;;;;;;;5027138;28;20045;-72
2023/07/21 04:06:23;;;;;;;3.30;2.25;;;;;;;;;;5027315;28;20534;-73
2023/07/21 04:08:51;;;;;;;2.17;2.08;;;;;;;;;;5043441;28;20390;-73
2023/07/21 04:11:19;;;;;;;3.38;2.10;;;;;;;;;;5042670;28;20056;-75
2023/07/21 04:13:46;;;;;;;2.17;2.08;;;;;;;;;;5025265;28;20522;-75
2023/07/21 04:16:14;;;;;;;4.70;2.33;;;;;;;;;;5045325;28;20073;-72
2023/07/21 04:18:41;;;;;;;3.10;1.80;;;;;;;;;;5045321;28;20055;-76
2023/07/21 04:21:09;;;;;;;2.22;2.10;;;;;;;;;;5027572;28;20067;-75
2023/07/21 04:23:37;;;;;;;2.15;2.05;;;;;;;;;;5040759;28;20079;-73
2023/07/21 04:26:06;;;;;;;2.20;1.90;;;;;;;;;;5024955;28;20045;-73
2023/07/21 04:28:34;;;;;;;2.28;2.15;;;;;;;;;;5025804;28;20138;-73
2023/07/21 04:31:02;;;;;;;2.40;2.17;;;;;;;;;;5025924;28;20056;-74
2023/07/21 04:33:39;;;;;;;2.70;2.50;;;;;;;;;;5055226;28;20505;-75
2023/07/21 04:36:08;;;;;;;3.63;2.30;;;;;;;;;;5022758;28;20045;-76
2023/07/21 04:38:36;;;;;;;2.47;2.28;;;;;;;;;;5022529;28;20743;-74
2023/07/21 04:41:12;;;;;;;2.38;2.22;;;;;;;;;;5024438;28;20048;-75
2023/07/21 04:43:41;;;;;;;2.40;2.28;;;;;;;;;;5035782;28;20092;-75
2023/07/21 04:46:10;;;;;;;2.60;2.40;;;;;;;;;;5063726;23;20075;-78
2023/07/21 04:48:39;;;;;;;2.28;2.10;;;;;;;;;;5032426;28;20247;-78
2023/07/21 04:51:12;;;;;;;2.50;2.28;;;;;;;;;;5033492;28;20047;-76
2023/07/21 04:53:42;;;;;;;2.50;2.30;;;;;;;;;;5030902;28;20049;-77
2023/07/21 04:56:09;;;;;;;2.60;2.22;;;;;;;;;;5015512;28;20491;-77
2023/07/21 04:58:45;;;;;;;2.55;2.35;;;;;;;;;;5017485;28;20068;-77
2023/07/21 05:01:15;;;;;;;2.67;2.28;;;;;;;;;;5039062;28;20392;-77
2023/07/21 05:03:42;;;;;;;2.90;2.65;;;;;;;;;;5034440;28;20117;-77
2023/07/21 05:06:11;;;;;;;2.42;2.22;;;;;;;;;;5018030;28;20064;-76
2023/07/21 05:08:43;;;;;;;3.22;2.90;;;;;;;;;;5010474;28;20041;-77
2023/07/21 05:11:11;;;;;;;2.85;2.33;;;;;;;;;;5018736;28;20381;-77
2023/07/21 05:13:38;;;;;;;2.63;2.42;;;;;;;;;;5022535;28;20076;-77
2023/07/21 05:16:22;;;;;;;2.78;2.58;;;;;;;;;;5031378;28;20494;-77
2023/07/21 05:19:09;;;;;;;2.55;2.35;;;;;;;;;;5015266;28;20235;-77
2023/07/21 05:21:51;;;;;;;2.90;2.75;;;;;;;;;;5031933;28;20048;-77
2023/07/21 05:24:37;;;;;;;2.80;2.60;;;;;;;;;;5021090;28;20323;-78
2023/07/21 05:27:07;;;;;;;2.72;2.53;;;;;;;;;;5018504;28;20040;-77
2023/07/21 05:29:43;;;;;;;2.22;2.13;;;;;;;;;;5018552;28;20374;-78
2023/07/21 05:32:12;;;;;;;3.15;2.90;;;;;;;;;;5018193;28;20049;-78
2023/07/21 05:34:40;;;;;;;2.35;2.25;;;;;;;;;;5038156;28;20045;-77
2023/07/21 05:37:07;;;;;;;2.42;2.30;;;;;;;;;;5023696;28;20041;-79
2023/07/21 05:39:35;;;;;;;2.85;2.65;;;;;;;;;;5042496;28;20139;-77
2023/07/21 05:42:03;;;;;;;2.28;2.08;;;;;;;;;;5018060;28;20053;-78
2023/07/21 05:44:33;;;;;;;2.60;2.40;;;;;;;;;;5022056;28;20383;-76
2023/07/21 05:47:02;;;;;;;2.50;2.10;;;;;;;;;;5011494;28;20041;-77
2023/07/21 05:49:30;;;;;;;2.40;2.30;;;;;;;;;;5033194;28;20037;-77
2023/07/21 05:52:01;;;;;;;2.28;2.08;;;;;;;;;;5021901;28;20313;-77
2023/07/21 05:54:41;;;;;;;2.30;1.98;;;;;;;;;;5021761;28;20037;-77
2023/07/21 05:57:11;;;;;;;2.42;2.22;;;;;;;;;;5018847;28;20243;-77
2023/07/21 05:59:43;;;;;;;2.25;2.10;;;;;;;;;;5020177;28;20037;-77
2023/07/21 06:02:10;;;;;;;3.13;2.92;;;;;;;;;;5038993;28;20095;-77
2023/07/21 06:04:38;;;;;;;3.55;3.28;;;;;;;;;;5038469;28;20045;-79
2023/07/21 06:07:24;;;;;;;2.40;2.30;;;;;;;;;;5016227;28;20487;-77
2023/07/21 06:10:14;;;;;;;2.45;2.28;;;;;;;;;;5016569;28;20050;-77
2023/07/21 06:12:46;;;;;;;5.57;2.17;;;;;;;;;;5038591;28;20490;-79
2023/07/21 06:15:30;;;;;;;2.97;2.58;;;;;;;;;;5010546;28;20088;-77
2023/07/21 06:18:03;;;;;;;2.08;1.90;;;;;;;;;;5017456;28;20048;-77
2023/07/21 06:20:32;;;;;;;4.65;1.92;;;;;;;;;;5015933;28;20037;-78
2023/07/21 06:23:01;;;;;;;1.90;1.80;;;;;;;;;;5017045;28;20064;-78
2023/07/21 06:25:30;;;;;;;2.15;2.00;;;;;;;;;;5017842;28;20510;-77
2023/07/21 06:28:03;;;;;;;2.15;1.92;;;;;;;;;;5022051;28;20072;-78
2023/07/21 06:30:30;;;;;;;2.50;2.30;;;;;;;;;;5017119;28;20076;-78
2023/07/21 06:32:58;;;;;;;2.22;2.10;;;;;;;;;;5015002;28;20053;-78
2023/07/21 06:35:44;;;;;;;2.60;2.40;;;;;;;;;;5014110;28;20041;-78
2023/07/21 06:38:44;;;;;;;2.78;2.33;;;;;;;;;;5006587;28;20037;-76
2023/07/21 06:41:16;;;;;;;3.65;2.35;;;;;;;;;;5037091;28;20044;-80
2023/07/21 06:44:02;;;;;;;3.00;2.70;;;;;;;;;;5042138;28;20041;-78
2023/07/21 06:46:51;;;;;;;5.00;3.03;;;;;;;;;;5011164;28;20052;-77
2023/07/21 06:49:38;;;;;;;4.63;3.15;;;;;;;;;;5042482;28;20046;-78
2023/07/21 06:52:15;;;;;;;2.88;2.70;;;;;;;;;;5033600;28;20049;-77
2023/07/21 06:54:44;;;;;;;2.55;2.20;;;;;;;;;;5035979;28;20567;-77
2023/07/21 06:57:12;;;;;;;5.20;2.20;;;;;;;;;;5019446;28;20068;-78
2023/07/21 06:59:39;;;;;;;5.05;2.15;;;;;;;;;;5037952;28;20132;-77
2023/07/21 07:02:09;;;;;;;2.08;1.70;;;;;;;;;;5032067;28;20045;-77
2023/07/21 07:04:39;;;;;;;1.77;1.70;;;;;;;;;;5033871;28;20048;-78
2023/07/21 07:07:07;;;;;;;1.60;1.50;;;;;;;;;;5019505;28;20090;-79
2023/07/21 07:09:35;;;;;;;1.73;1.63;;;;;;;;;;5034674;28;20061;-78
2023/07/21 07:12:03;;;;;;;1.73;1.42;;;;;;;;;;5043729;28;20057;-79
2023/07/21 07:14:31;;;;;;;1.40;1.40;;;;;;;;;;5040618;28;20521;-78
2023/07/21 07:16:59;;;;;;;1.77;1.67;;;;;;;;;;5025196;28;20041;-79
2023/07/21 07:19:26;;;;;;;5.32;1.80;;;;;;;;;;5025499;28;20312;-79
2023/07/21 07:21:55;;;;;;;2.38;1.67;;;;;;;;;;5037415;28;20052;-79
2023/07/21 07:24:22;;;;;;;4.32;1.67;;;;;;;;;;5040556;28;20037;-78
2023/07/21 07:26:51;;;;;;;4.65;1.95;;;;;;;;;;5024458;28;20461;-78
2023/07/21 07:29:20;;;;;;;2.05;1.80;;;;;;;;;;5016731;28;20180;-79
2023/07/21 07:31:48;;;;;;;1.58;1.48;;;;;;;;;;5021549;28;20128;-78
2023/07/21 07:34:16;;;;;;;1.65;1.55;;;;;;;;;;5040820;28;20630;-80
2023/07/21 07:36:43;;;;;;;2.17;1.92;;;;;;;;;;5036723;28;20037;-79
2023/07/21 07:39:15;;;;;;;2.00;1.50;;;;;;;;;;5035458;28;20087;-79
2023/07/21 07:41:44;;;;;;;3.13;1.83;;;;;;;;;;5033306;28;20048;-78
2023/07/21 07:44:12;;;;;;;1.80;1.70;;;;;;;;;;5042077;28;20045;-79
2023/07/21 07:46:39;;;;;;;3.20;2.10;;;;;;;;;;5038493;28;20118;-78
2023/07/21 07:49:07;;;;;;;2.65;1.65;;;;;;;;;;5043529;28;20052;-79
2023/07/21 07:51:38;;;;;;;4.00;2.40;;;;;;;;;;5038455;28;20060;-77
2023/07/21 07:54:07;;;;;;;3.80;1.88;;;;;;;;;;5039103;28;20128;-77
2023/07/21 07:56:35;;;;;;;3.88;2.08;;;;;;;;;;5040108;28;20735;-78
2023/07/21 07:59:02;;;;;;;2.45;1.70;;;;;;;;;;5037732;28;20057;-78
2023/07/21 08:01:29;;;;;;;8.05;2.00;;;;;;;;;;5039207;28;20038;-76
2023/07/21 08:03:57;;;;;;;4.53;2.00;;;;;;;;;;5036203;28;20064;-76
2023/07/21 08:06:25;;;;;;;5.80;2.60;;;;;;;;;;5033259;28;20053;-76
2023/07/21 08:08:55;;;;;;;5.65;1.98;;;;;;;;;;5036266;28;20510;-76
2023/07/21 08:11:22;;;;;;;1.88;1.77;;;;;;;;;;5038295;28;20052;-76
2023/07/21 08:13:50;;;;;;;3.95;1.70;;;;;;;;;;5040396;28;20533;-77
2023/07/21 08:16:18;;;;;;;2.38;1.83;;;;;;;;;;5039282;28;20055;-77
2023/07/21 08:18:46;;;;;;;4.43;1.98;;;;;;;;;;5034937;28;20482;-77
2023/07/21 08:21:20;;;;;;;8.98;1.98;;;;;;;;;;5033258;28;20557;-76
2023/07/21 08:23:49;;;;;;;6.07;1.88;;;;;;;;;;5044492;28;20119;-78
2023/07/21 08:26:17;;;;;;;3.03;1.92;;;;;;;;;;5024157;28;20053;-79
2023/07/21 08:28:45;;;;;;;8.60;2.08;;;;;;;;;;5043403;28;20518;-77
2023/07/21 08:31:12;;;;;;;4.03;1.90;;;;;;;;;;5040225;28;20122;-78
2023/07/21 08:33:40;;;;;;;3.35;1.95;;;;;;;;;;5044881;28;20142;-77
2023/07/21 08:36:08;;;;;;;6.25;2.30;;;;;;;;;;5045943;28;20053;-79
2023/07/21 08:38:35;;;;;;;2.13;1.95;;;;;;;;;;5036977;28;20261;-77
2023/07/21 08:41:04;;;;;;;2.67;2.10;;;;;;;;;;5043817;28;20376;-76
2023/07/21 08:43:32;;;;;;;1.70;1.60;;;;;;;;;;5041635;28;20029;-77
2023/07/21 08:46:01;;;;;;;3.13;1.92;;;;;;;;;;5041428;28;20061;-78
2023/07/21 08:48:29;;;;;;;3.97;2.08;;;;;;;;;;5044204;28;20048;-76
2023/07/21 08:50:57;;;;;;;5.50;1.88;;;;;;;;;;5045249;28;20453;-77
2023/07/21 08:53:24;;;;;;;5.07;2.00;;;;;;;;;;5035778;28;20083;-78
2023/07/21 08:55:53;;;;;;;1.55;1.40;;;;;;;;;;5031230;28;20085;-77
2023/07/21 08:58:21;;;;;;;2.53;1.60;;;;;;;;;;5047032;28;20072;-77
2023/07/21 09:00:52;;;;;;;1.65;1.55;;;;;;;;;;5041566;28;20033;-78
2023/07/21 09:03:23;;;;;;;2.55;1.70;;;;;;;;;;5042887;28;20140;-77
2023/07/21 09:05:51;;;;;;;5.65;1.83;;;;;;;;;;5038038;28;20056;-78
2023/07/21 09:08:24;;;;;;;4.38;1.67;;;;;;;;;;5042805;28;20514;-78
2023/07/21 09:10:51;;;;;;;1.77;1.40;;;;;;;;;;5045301;28;20057;-77
2023/07/21 09:13:19;;;;;;;1.60;1.50;;;;;;;;;;5045211;28;20079;-77
2023/07/21 09:15:54;;;;;;;2.30;1.70;;;;;;;;;;5035598;28;20053;-77
2023/07/21 09:18:29;;;;;;;1.90;1.52;;;;;;;;;;5021731;28;20041;-77
2023/07/21 09:20:57;;;;;;;1.60;1.48;;;;;;;;;;5032091;28;20045;-77
2023/07/21 09:23:29;;;;;;;1.70;1.70;;;;;;;;;;5035677;28;20334;-77
2023/07/21 09:25:59;;;;;;;1.63;1.50;;;;;;;;;;5032525;28;20517;-77
2023/07/21 09:28:40;;;;;;;1.92;1.50;;;;;;;;;;5042279;28;20084;-76
2023/07/21 09:31:08;;;;;;;;;;;;;;;;;;5030051;28;20045;-78
2023/07/21 09:33:40;;;;;;;2.22;1.75;;;;;;;;;;5039399;28;20373;-77
2023/07/21 09:36:09;;;;;;;1.50;1.40;;;;;;;;;;5033080;28;20141;-77
2023/07/21 09:38:37;;;;;;;2.47;1.83;;;;;;;;;;5034178;28;20425;-77
2023/07/21 09:41:06;;;;;;;1.65;1.55;;;;;;;;;;5037011;28;20045;-77
2023/07/21 09:43:34;;;;;;;2.60;1.65;;;;;;;;;;5020598;28;20049;-78
2023/07/21 09:46:05;;;;;;;1.60;1.50;;;;;;;;;;5029778;28;20128;-77
2023/07/21 09:48:45;;;;;;;1.60;1.50;;;;;;;;;;5037552;28;20491;-78
2023/07/21 09:51:13;;;;;;;1.50;1.42;;;;;;;;;;5035077;28;20457;-77
2023/07/21 09:53:42;;;;;;;1.60;1.50;;;;;;;;;;5025748;28;20142;-78
2023/07/21 09:56:11;;;;;;;1.50;1.50;;;;;;;;;;5023183;28;20482;-77
2023/07/21 09:58:57;;;;;;;3.78;1.65;;;;;;;;;;5039635;28;20057;-77
2023/07/21 10:01:25;;;;;;;1.70;1.60;;;;;;;;;;5046079;28;20087;-78
2023/07/21 10:03:54;;;;;;;2.13;1.40;;;;;;;;;;5040015;28;20083;-78
2023/07/21 10:06:22;;;;;;;1.70;1.60;;;;;;;;;;5039173;28;20123;-77
2023/07/21 10:08:51;;;;;;;3.58;1.58;;;;;;;;;;5036347;28;20128;-77
2023/07/21 10:11:18;;;;;;;1.63;1.52;;;;;;;;;;5038684;28;20056;-78
2023/07/21 10:13:48;;;;;;;1.50;1.38;;;;;;;;;;5036675;28;20149;-78
2023/07/21 10:16:15;;;;;;;1.60;1.50;;;;;;;;;;5031055;28;20499;-77
2023/07/21 10:19:02;;;;;;;1.77;1.63;;;;;;;;;;5034199;28;20593;-77
2023/07/21 10:21:30;;;;;;;1.92;1.67;;;;;;;;;;5043286;28;20103;-77
2023/07/21 10:24:02;;;;;;;1.70;1.60;;;;;;;;;;5036927;28;20212;-77
2023/07/21 10:26:30;;;;;;;3.38;1.73;;;;;;;;;;5038414;28;20512;-80
2023/07/21 10:29:14;;;;;;;1.95;1.80;;;;;;;;;;5027669;28;20045;-77
2023/07/21 10:31:50;;;;;;;1.75;1.65;;;;;;;;;;5017705;28;20046;-77
2023/07/21 10:34:18;;;;;;;2.90;1.70;;;;;;;;;;5032427;28;20058;-77
2023/07/21 10:36:58;;;;;;;1.90;1.80;;;;;;;;;;5027853;28;20087;-77
2023/07/21 10:39:27;;;;;;;1.83;1.73;;;;;;;;;;5031398;28;20041;-77
2023/07/21 10:41:56;;;;;;;1.98;1.85;;;;;;;;;;5029112;28;20113;-77
2023/07/21 10:44:24;;;;;;;1.98;1.50;;;;;;;;;;5044187;28;20052;-75
2023/07/21 10:46:52;;;;;;;2.88;1.58;;;;;;;;;;5028164;28;20469;-77
2023/07/21 10:49:20;;;;;;;2.78;1.70;;;;;;;;;;5013041;28;20076;-78
2023/07/21 10:51:48;;;;;;;3.22;1.77;;;;;;;;;;5031622;28;20486;-77
2023/07/21 10:54:16;;;;;;;1.88;1.77;;;;;;;;;;5032680;28;20048;-77
2023/07/21 10:56:44;;;;;;;4.25;1.80;;;;;;;;;;5031781;28;20496;-77
2023/07/21 10:59:13;;;;;;;1.80;1.70;;;;;;;;;;5036993;28;20053;-77
2023/07/21 11:01:44;;;;;;;3.42;2.03;;;;;;;;;;5044018;28;20509;-77
2023/07/21 11:04:13;;;;;;;1.95;1.85;;;;;;;;;;5037305;28;20419;-78
2023/07/21 11:06:45;;;;;;;2.25;2.15;;;;;;;;;;5033602;28;20053;-77
2023/07/21 11:09:13;;;;;;;1.90;1.80;;;;;;;;;;5036433;28;20525;-78
2023/07/21 11:11:41;;;;;;;2.42;1.80;;;;;;;;;;5037044;28;20123;-77
2023/07/21 11:14:13;;;;;;;2.00;1.90;;;;;;;;;;5036783;28;20052;-78
2023/07/21 11:16:40;;;;;;;;;;;;;;;;;;5044273;28;20135;-78
2023/07/21 11:19:09;;;;;;;2.00;1.90;;;;;;;;;;5038213;28;19921;-77
2023/07/21 11:21:36;;;;;;;2.95;1.90;;;;;;;;;;5038195;28;20416;-77
2023/07/21 11:24:04;;;;;;;1.88;1.77;;;;;;;;;;5040322;28;20122;-77
2023/07/21 11:26:31;;;;;;;1.90;1.80;;;;;;;;;;5044533;28;20049;-77
2023/07/21 11:28:59;;;;;;;2.42;2.08;;;;;;;;;;5038239;28;20142;-77
2023/07/21 11:31:31;;;;;;;1.92;1.83;;;;;;;;;;5041772;28;20051;-76
2023/07/21 11:34:01;;;;;;;2.22;1.90;;;;;;;;;;5041381;28;20063;-77
2023/07/21 11:36:30;;;;;;;2.90;1.90;;;;;;;;;;5037011;28;20045;-77
2023/07/21 11:39:02;;;;;;;3.03;2.17;;;;;;;;;;5044340;28;20064;-77
2023/07/21 11:41:32;;;;;;;3.50;2.15;;;;;;;;;;5042619;28;20051;-76
2023/07/21 11:43:59;;;;;;;3.03;1.88;;;;;;;;;;5045850;28;20095;-76
2023/07/21 11:46:27;;;;;;;1.88;1.77;;;;;;;;;;5044803;28;20140;-77
2023/07/21 11:48:55;;;;;;;2.33;2.13;;;;;;;;;;5024361;28;20454;-77
2023/07/21 11:51:23;;;;;;;2.20;2.10;;;;;;;;;;5039512;28;20045;-78
2023/07/21 11:53:51;;;;;;;2.15;1.95;;;;;;;;;;5042276;28;20040;-77
2023/07/21 11:56:19;;;;;;;2.08;1.98;;;;;;;;;;5040865;28;20045;-77
2023/07/21 11:58:46;;;;;;;2.00;1.90;;;;;;;;;;5033599;28;20053;-77
2023/07/21 12:01:14;;;;;;;2.28;2.17;;;;;;;;;;5042747;28;20801;-77
2023/07/21 12:03:41;;;;;;;2.45;2.28;;;;;;;;;;5043070;28;20099;-77
2023/07/21 12:06:10;;;;;;;2.30;2.10;;;;;;;;;;5021719;28;20045;-77
2023/07/21 12:08:37;;;;;;;4.43;2.00;;;;;;;;;;5036715;28;20080;-77
2023/07/21 12:11:05;;;;;;;3.70;2.20;;;;;;;;;;5039872;28;20044;-77
2023/07/21 12:13:34;;;;;;;4.95;2.17;;;;;;;;;;5048141;28;20057;-77
2023/07/21 12:16:03;;;;;;;2.30;2.08;;;;;;;;;;5040222;28;20053;-77
2023/07/21 12:18:30;;;;;;;3.13;1.95;;;;;;;;;;5048675;28;20052;-77
2023/07/21 12:20:58;;;;;;;2.58;2.30;;;;;;;;;;5047112;28;20059;-77
2023/07/21 12:23:25;;;;;;;4.68;2.30;;;;;;;;;;5048329;28;20434;-77
2023/07/21 12:25:53;;;;;;;2.20;2.10;;;;;;;;;;5036212;28;20111;-77
2023/07/21 12:28:20;;;;;;;2.33;2.13;;;;;;;;;;5025054;28;20049;-77
2023/07/21 12:30:48;;;;;;;3.30;2.30;;;;;;;;;;5036632;28;20049;-77
2023/07/21 12:33:16;;;;;;;3.42;1.98;;;;;;;;;;5039778;28;20147;-77
2023/07/21 12:35:44;;;;;;;2.00;1.90;;;;;;;;;;5036575;28;20057;-77
2023/07/21 12:38:11;;;;;;;2.00;1.90;;;;;;;;;;5037103;28;20037;-78
2023/07/21 12:40:40;;;;;;;2.25;1.80;;;;;;;;;;5034963;28;20052;-77
2023/07/21 12:43:08;;;;;;;2.10;2.00;;;;;;;;;;5037591;28;20052;-78
2023/07/21 12:45:36;;;;;;;2.60;1.90;;;;;;;;;;5036344;28;20053;-76
2023/07/21 12:48:07;;;;;;;1.77;1.70;;;;;;;;;;5035793;28;20049;-77
2023/07/21 12:50:35;;;;;;;;;;;;;;;;;;5038319;28;20057;-78
2023/07/21 12:53:17;;;;;;;2.10;1.90;;;;;;;;;;5022369;28;20770;-78
2023/07/21 12:55:49;;;;;;;2.00;1.90;;;;;;;;;;5042530;28;20045;-78
2023/07/21 12:58:20;;;;;;;2.83;2.03;;;;;;;;;;5041206;28;20048;-77
2023/07/21 13:00:47;;;;;;;1.92;1.83;;;;;;;;;;5036613;28;20060;-78
2023/07/21 13:03:15;;;;;;;1.80;1.70;;;;;;;;;;5033976;28;20057;-77
2023/07/21 13:05:43;;;;;;;1.85;1.75;;;;;;;;;;5041020;28;20461;-78
2023/07/21 13:08:23;;;;;;;2.03;1.80;;;;;;;;;;5039831;28;20049;-77
2023/07/21 13:10:50;;;;;;;2.13;1.90;;;;;;;;;;5040169;28;20049;-78
2023/07/21 13:13:18;;;;;;;6.75;1.90;;;;;;;;;;5041409;28;20037;-77
2023/07/21 13:15:45;;;;;;;1.77;1.67;;;;;;;;;;5022220;28;20128;-78
2023/07/21 13:18:13;;;;;;;2.15;2.00;;;;;;;;;;5047624;28;20044;-78
2023/07/21 13:20:41;;;;;;;2.08;1.90;;;;;;;;;;5043939;28;20120;-78
2023/07/21 13:23:11;;;;;;;1.83;1.73;;;;;;;;;;5042445;28;20125;-79
2023/07/21 13:25:47;;;;;;;2.05;1.80;;;;;;;;;;5040941;28;20165;-79
2023/07/21 13:28:15;;;;;;;3.83;1.95;;;;;;;;;;5041881;28;20053;-77
2023/07/21 13:30:43;;;;;;;3.65;2.00;;;;;;;;;;5044573;28;20041;-78
2023/07/21 13:33:19;;;;;;;2.25;2.05;;;;;;;;;;5031227;28;20068;-77
2023/07/21 13:35:49;;;;;;;2.27;1.83;;;;;;;;;;5042981;28;20045;-77
2023/07/21 13:38:17;;;;;;;2.97;1.90;;;;;;;;;;5045379;28;20056;-79
2023/07/21 13:40:44;;;;;;;3.13;1.90;;;;;;;;;;5034995;28;20045;-79
2023/07/21 13:43:15;;;;;;;2.00;1.90;;;;;;;;;;5037695;28;20492;-79
2023/07/21 13:45:42;;;;;;;3.47;2.00;;;;;;;;;;5039591;28;20045;-79
2023/07/21 13:48:10;;;;;;;3.70;1.98;;;;;;;;;;5034032;28;20242;-77
2023/07/21 13:50:40;;;;;;;2.22;1.80;;;;;;;;;;5034650;28;20048;-78
2023/07/21 13:53:08;;;;;;;1.63;1.52;;;;;;;;;;5040392;28;20499;-78
2023/07/21 13:55:35;;;;;;;2.08;1.83;;;;;;;;;;5031944;28;20056;-77
2023/07/21 13:58:03;;;;;;;1.60;1.52;;;;;;;;;;5037336;28;20538;-78
2023/07/21 14:00:30;;;;;;;1.60;1.40;;;;;;;;;;5026121;28;20045;-78
2023/07/21 14:02:58;;;;;;;1.75;1.30;;;;;;;;;;5028524;28;20080;-76
2023/07/21 14:05:25;;;;;;;1.70;1.60;;;;;;;;;;5033287;28;20132;-76
2023/07/21 14:07:54;;;;;;;1.38;1.27;;;;;;;;;;5041044;28;20064;-79
2023/07/21 14:10:23;;;;;;;1.20;1.20;;;;;;;;;;5040293;28;20043;-77
2023/07/21 14:12:51;;;;;;;1.48;1.38;;;;;;;;;;5041317;28;20058;-78
2023/07/21 14:15:18;;;;;;;3.00;1.50;;;;;;;;;;5040285;28;20057;-78
2023/07/21 14:17:46;;;;;;;1.30;1.20;;;;;;;;;;5041280;28;20471;-78
2023/07/21 14:20:14;;;;;;;2.85;1.40;;;;;;;;;;5042086;28;20084;-77
2023/07/21 14:22:41;;;;;;;1.55;1.45;;;;;;;;;;5040780;28;20056;-79
2023/07/21 14:25:09;;;;;;;1.30;1.20;;;;;;;;;;5033954;28;20056;-78
2023/07/21 14:27:37;;;;;;;2.85;1.30;;;;;;;;;;5040586;28;20564;-79
2023/07/21 14:30:07;;;;;;;;;;;;;;;;;;5029830;28;20091;-78
2023/07/21 14:32:34;;;;;;;1.60;1.50;;;;;;;;;;5045695;28;20009;-78
2023/07/21 14:35:11;;;;;;;1.90;1.40;;;;;;;;;;5023150;28;20053;-78
2023/07/21 14:37:42;;;;;;;1.48;1.20;;;;;;;;;;5042027;28;20048;-77
2023/07/21 14:40:15;;;;;;;1.00;1.00;;;;;;;;;;5014937;28;20045;-79
2023/07/21 14:42:43;;;;;;;2.63;1.10;;;;;;;;;;5037529;28;20041;-77
2023/07/21 14:45:11;;;;;;;2.05;0.70;;;;;;;;;;5035980;28;20053;-77
2023/07/21 14:47:39;;;;;;;1.13;0.80;;;;;;;;;;5041672;28;20053;-77
2023/07/21 14:50:07;;;;;;;1.98;1.00;;;;;;;;;;5045147;28;20064;-78
2023/07/21 14:52:35;;;;;;;0.60;0.60;;;;;;;;;;5039920;28;20049;-77
2023/07/21 14:55:09;;;;;;;0.70;0.70;;;;;;;;;;5039157;28;20079;-76
2023/07/21 14:57:40;;;;;;;0.70;0.70;;;;;;;;;;5039387;28;20470;-78
2023/07/21 15:00:13;;;;;;;1.75;0.60;;;;;;;;;;5044638;28;20098;-79